createdAt,value
2017-10-18T00:00:52.113Z,14.47
2017-10-18T00:03:19.731Z,19.07
2017-10-18T00:05:47.289Z,18.30
2017-10-18T00:08:14.903Z,18.30
2017-10-18T00:10:42.863Z,18.50
2017-10-18T00:13:10.469Z,34.93
2017-10-18T00:15:38.029Z,18.67
2017-10-18T00:18:06.049Z,19.53
2017-10-18T00:20:34.072Z,20.90
2017-10-18T00:23:03.149Z,20.53
2017-10-18T00:25:30.771Z,25.73
2017-10-18T00:27:58.369Z,17.50
2017-10-18T00:30:26.070Z,16.73
2017-10-18T00:32:54.057Z,16.57
2017-10-18T00:35:21.634Z,18.67
2017-10-18T00:37:50.405Z,18.17
2017-10-18T00:40:18.766Z,20.90
2017-10-18T00:42:46.792Z,16.20
2017-10-18T00:45:14.361Z,15.30
2017-10-18T00:47:42.382Z,14.80
2017-10-18T00:50:10.736Z,16.63
2017-10-18T00:52:39.084Z,23.57
2017-10-18T00:55:08.038Z,17.03
2017-10-18T00:57:35.682Z,15.67
2017-10-18T01:00:04.653Z,16.70
2017-10-18T01:02:32.233Z,15.33
2017-10-18T01:04:59.891Z,17.47
2017-10-18T01:07:28.823Z,19.30
2017-10-18T01:09:56.423Z,22.07
2017-10-18T01:12:24.021Z,24.40
2017-10-18T01:14:51.613Z,27.03
2017-10-18T01:17:20.614Z,33.20
2017-10-18T01:19:48.209Z,26.60
2017-10-18T01:22:15.786Z,32.57
2017-10-18T01:24:43.428Z,27.83
2017-10-18T01:27:11.010Z,38.33
2017-10-18T01:29:40.169Z,43.33
2017-10-18T01:32:08.889Z,35.43
2017-10-18T01:34:37.684Z,32.50
2017-10-18T01:37:05.327Z,32.33
2017-10-18T01:39:33.675Z,39.37
2017-10-18T01:42:02.652Z,38.17
2017-10-18T01:44:30.245Z,37.60
2017-10-18T01:46:59.852Z,47.03
2017-10-18T01:49:28.767Z,36.83
2017-10-18T01:51:56.506Z,38.53
2017-10-18T01:54:24.084Z,41.67
2017-10-18T01:56:53.198Z,40.27
2017-10-18T01:59:21.224Z,64.07
2017-10-18T02:01:49.199Z,46.60
2017-10-18T02:04:18.164Z,31.73
2017-10-18T02:06:46.152Z,32.27
2017-10-18T02:09:14.920Z,32.00
2017-10-18T02:11:42.502Z,32.57
2017-10-18T02:14:10.861Z,32.93
2017-10-18T02:16:38.925Z,27.80
2017-10-18T02:19:06.913Z,28.40
2017-10-18T02:21:36.069Z,27.43
2017-10-18T02:24:03.648Z,23.70
2017-10-18T02:26:31.310Z,24.73
2017-10-18T02:28:58.901Z,24.40
2017-10-18T02:31:27.831Z,21.83
2017-10-18T02:33:56.601Z,22.20
2017-10-18T02:36:25.333Z,27.10
2017-10-18T02:38:54.304Z,22.87
2017-10-18T02:41:21.900Z,25.70
2017-10-18T02:43:49.511Z,22.83
2017-10-18T02:46:17.071Z,23.87
2017-10-18T02:48:44.634Z,53.10
2017-10-18T02:51:13.621Z,87.80
2017-10-18T02:53:41.210Z,25.77
2017-10-18T02:56:10.200Z,24.20
2017-10-18T02:58:39.120Z,32.10
2017-10-18T03:01:06.770Z,25.73
2017-10-18T03:03:34.353Z,24.30
2017-10-18T03:06:02.342Z,23.87
2017-10-18T03:08:30.761Z,25.27
2017-10-18T03:10:59.717Z,24.07
2017-10-18T03:13:27.325Z,23.63
2017-10-18T03:15:55.682Z,28.50
2017-10-18T03:18:24.797Z,22.77
2017-10-18T03:20:53.138Z,20.97
2017-10-18T03:23:20.787Z,23.97
2017-10-18T03:25:49.752Z,22.03
2017-10-18T03:28:18.101Z,24.33
2017-10-18T03:30:45.714Z,27.20
2017-10-18T03:33:13.272Z,21.67
2017-10-18T03:35:40.969Z,28.53
2017-10-18T03:38:08.537Z,43.33
2017-10-18T03:40:36.157Z,26.60
2017-10-18T03:43:04.112Z,35.10
2017-10-18T03:45:33.262Z,40.73
2017-10-18T04:05:20.980Z,27.27
2017-10-18T04:13:30.784Z,41.43
2017-10-18T04:15:59.816Z,32.17
2017-10-18T04:18:29.286Z,49.87
2017-10-18T04:21:00.123Z,32.23
2017-10-18T04:23:28.931Z,32.50
2017-10-18T04:25:58.033Z,48.83
2017-10-18T04:28:26.477Z,38.77
2017-10-18T04:30:54.242Z,39.00
2017-10-18T04:33:23.730Z,43.70
2017-10-18T04:35:51.597Z,36.17
2017-10-18T04:38:20.547Z,43.03
2017-10-18T04:40:48.212Z,43.57
2017-10-18T04:43:16.549Z,40.33
2017-10-18T04:45:45.579Z,38.63
2017-10-18T04:48:13.537Z,34.97
2017-10-18T04:50:42.321Z,38.67
2017-10-18T04:53:10.655Z,35.30
2017-10-18T04:55:38.223Z,37.43
2017-10-18T04:58:05.891Z,39.77
2017-10-18T05:00:33.538Z,38.17
2017-10-18T05:03:02.303Z,38.10
2017-10-18T05:05:30.169Z,46.23
2017-10-18T05:07:59.212Z,60.13
2017-10-18T05:27:47.611Z,96.23
2017-10-18T05:47:24.774Z,32.77
2017-10-18T05:49:52.461Z,118.60
2017-10-18T05:52:20.040Z,54.63
2017-10-18T05:54:49.010Z,41.27
2017-10-18T05:57:17.929Z,171.13
2017-10-18T05:59:47.070Z,49.07
2017-10-18T06:02:15.997Z,66.70
2017-10-18T06:04:44.909Z,51.77
2017-10-18T06:07:13.872Z,107.00
2017-10-18T06:09:42.787Z,77.50
2017-10-18T06:12:11.752Z,43.43
2017-10-18T06:14:40.467Z,39.70
2017-10-18T06:17:08.808Z,41.97
2017-10-18T06:19:39.071Z,40.30
2017-10-18T06:22:07.999Z,52.63
2017-10-18T06:24:35.748Z,39.53
2017-10-18T06:27:03.315Z,103.20
2017-10-18T06:29:30.920Z,144.17
2017-10-18T06:31:58.498Z,56.90
2017-10-18T06:34:26.086Z,58.80
2017-10-18T06:36:53.720Z,51.47
2017-10-18T06:39:22.073Z,46.00
2017-10-18T06:41:51.051Z,60.80
2017-10-18T06:44:19.014Z,59.17
2017-10-18T06:46:46.646Z,46.40
2017-10-18T06:49:14.232Z,62.93
2017-10-18T06:51:42.200Z,58.23
2017-10-18T06:54:10.712Z,52.63
2017-10-18T06:56:39.057Z,225.00
2017-10-18T06:59:06.692Z,105.87
2017-10-18T07:01:34.538Z,86.00
2017-10-18T07:04:02.160Z,70.33
2017-10-18T07:06:29.732Z,50.50
2017-10-18T07:08:57.339Z,50.37
2017-10-18T07:11:24.957Z,48.03
2017-10-18T07:13:53.910Z,44.70
2017-10-18T07:16:21.594Z,42.00
2017-10-18T07:18:49.168Z,38.00
2017-10-18T07:21:16.854Z,47.83
2017-10-18T07:23:44.824Z,44.13
2017-10-18T07:26:12.421Z,37.00
2017-10-18T07:28:40.863Z,40.70
2017-10-18T07:31:08.501Z,40.60
2017-10-18T07:33:36.526Z,36.20
2017-10-18T07:36:04.880Z,42.90
2017-10-18T07:38:34.019Z,37.83
2017-10-18T07:41:01.595Z,38.03
2017-10-18T07:43:29.327Z,124.67
2017-10-18T07:45:57.052Z,48.87
2017-10-18T07:48:25.481Z,124.73
2017-10-18T07:50:53.097Z,57.30
2017-10-18T07:53:21.562Z,53.17
2017-10-18T07:55:49.542Z,40.80
2017-10-18T07:58:17.193Z,64.87
2017-10-18T08:00:45.340Z,69.20
2017-10-18T08:03:14.392Z,92.60
2017-10-18T08:05:42.525Z,47.40
2017-10-18T08:08:10.739Z,77.47
2017-10-18T08:10:39.091Z,49.67
2017-10-18T08:13:07.942Z,51.87
2017-10-18T08:15:35.563Z,58.43
2017-10-18T08:18:04.172Z,61.80
2017-10-18T08:20:31.789Z,47.40
2017-10-18T08:23:00.128Z,44.47
2017-10-18T08:25:27.763Z,46.37
2017-10-18T08:27:56.120Z,54.67
2017-10-18T08:30:23.802Z,59.97
2017-10-18T08:32:51.385Z,52.43
2017-10-18T08:35:19.345Z,44.07
2017-10-18T08:37:46.968Z,42.37
2017-10-18T08:40:14.548Z,44.23
2017-10-18T08:42:42.220Z,45.03
2017-10-18T08:45:09.846Z,45.00
2017-10-18T08:47:37.481Z,43.40
2017-10-18T08:50:06.602Z,44.90
2017-10-18T08:52:34.189Z,43.60
2017-10-18T08:55:01.819Z,47.40
2017-10-18T08:57:30.218Z,44.67
2017-10-18T08:59:59.557Z,45.80
2017-10-18T09:02:28.496Z,45.67
2017-10-18T09:04:56.270Z,93.03
2017-10-18T09:07:24.654Z,67.03
2017-10-18T09:09:52.238Z,55.63
2017-10-18T09:12:19.866Z,62.97
2017-10-18T09:14:47.692Z,57.53
2017-10-18T09:17:15.721Z,56.37
2017-10-18T09:19:43.310Z,53.37
2017-10-18T09:22:12.306Z,53.10
2017-10-18T09:24:40.675Z,56.30
2017-10-18T09:27:08.645Z,55.43
2017-10-18T09:29:36.667Z,57.03
2017-10-18T09:32:04.248Z,61.40
2017-10-18T09:34:33.228Z,57.37
2017-10-18T09:37:02.156Z,52.30
2017-10-18T09:39:29.718Z,59.03
2017-10-18T09:41:58.704Z,62.70
2017-10-18T09:44:26.319Z,57.30
2017-10-18T09:46:55.082Z,59.67
2017-10-18T09:49:23.077Z,62.73
2017-10-18T09:51:50.734Z,58.47
2017-10-18T09:54:19.432Z,64.80
2017-10-18T09:56:47.425Z,63.20
2017-10-18T09:59:16.388Z,56.17
2017-10-18T10:01:43.975Z,59.83
2017-10-18T10:04:12.720Z,47.27
2017-10-18T10:06:40.311Z,45.17
2017-10-18T10:09:08.021Z,48.47
2017-10-18T10:11:35.598Z,43.17
2017-10-18T10:14:03.594Z,42.90
2017-10-18T10:16:31.238Z,44.47
2017-10-18T10:18:58.841Z,47.13
2017-10-18T10:21:26.445Z,49.70
2017-10-18T10:23:55.756Z,44.93
2017-10-18T10:26:24.148Z,47.77
2017-10-18T10:28:52.193Z,43.93
2017-10-18T10:31:20.182Z,52.90
2017-10-18T10:33:47.824Z,53.50
2017-10-18T10:36:15.802Z,52.47
2017-10-18T10:38:44.181Z,51.20
2017-10-18T10:41:12.153Z,54.17
2017-10-18T10:43:40.207Z,49.93
2017-10-18T10:46:08.796Z,51.47
2017-10-18T10:48:37.170Z,47.30
2017-10-18T10:51:05.931Z,53.57
2017-10-18T10:53:33.925Z,46.40
2017-10-18T10:56:03.383Z,49.27
2017-10-18T10:58:31.783Z,47.37
2017-10-18T11:00:59.412Z,43.60
2017-10-18T11:03:28.504Z,47.77
2017-10-18T11:05:56.091Z,45.00
2017-10-18T11:08:23.723Z,46.33
2017-10-18T11:10:52.064Z,35.80
2017-10-18T11:13:19.651Z,44.20
2017-10-18T11:15:47.992Z,43.80
2017-10-18T11:18:15.624Z,46.33
2017-10-18T11:20:43.614Z,43.43
2017-10-18T11:23:11.188Z,40.97
2017-10-18T11:25:38.831Z,43.77
2017-10-18T11:28:07.160Z,41.77
2017-10-18T11:30:35.913Z,41.10
2017-10-18T11:33:03.769Z,41.57
2017-10-18T11:35:31.437Z,39.33
2017-10-18T11:37:59.033Z,43.63
2017-10-18T11:40:26.625Z,33.43
2017-10-18T11:42:54.688Z,35.07
2017-10-18T11:45:23.296Z,33.83
2017-10-18T11:47:51.039Z,28.83
2017-10-18T11:50:19.381Z,32.23
2017-10-18T11:52:46.992Z,36.47
2017-10-18T11:55:14.567Z,32.63
2017-10-18T11:57:42.159Z,29.73
2017-10-18T12:00:09.770Z,26.03
2017-10-18T12:02:37.355Z,26.90
2017-10-18T12:05:04.984Z,31.67
2017-10-18T12:07:32.556Z,27.60
2017-10-18T12:10:00.613Z,27.80
2017-10-18T12:12:28.186Z,28.83
2017-10-18T12:14:55.739Z,26.87
2017-10-18T12:17:23.336Z,36.83
2017-10-18T12:19:50.901Z,32.13
2017-10-18T12:22:18.521Z,28.47
2017-10-18T12:24:46.182Z,27.07
2017-10-18T12:27:14.045Z,30.50
2017-10-18T12:29:41.605Z,29.77
2017-10-18T12:32:09.596Z,27.17
2017-10-18T12:34:37.228Z,26.50
2017-10-18T12:37:04.793Z,27.97
2017-10-18T12:39:32.436Z,23.00
2017-10-18T12:42:00.016Z,31.90
2017-10-18T12:44:27.600Z,24.53
2017-10-18T12:46:55.217Z,28.60
2017-10-18T12:49:22.797Z,24.50
2017-10-18T12:51:50.433Z,23.43
2017-10-18T12:54:18.009Z,26.30
2017-10-18T12:56:45.653Z,21.60
2017-10-18T12:59:13.230Z,25.90
2017-10-18T13:01:40.869Z,25.20
2017-10-18T13:04:08.476Z,29.67
2017-10-18T13:06:36.109Z,20.00
2017-10-18T13:09:03.749Z,24.07
2017-10-18T13:11:31.359Z,25.33
2017-10-18T13:13:58.989Z,27.13
2017-10-18T13:16:26.610Z,24.80
2017-10-18T13:18:54.185Z,27.60
2017-10-18T13:21:21.806Z,27.27
2017-10-18T13:23:49.519Z,35.10
2017-10-18T13:26:17.260Z,23.73
2017-10-18T13:28:44.889Z,22.90
2017-10-18T13:31:12.580Z,28.40
2017-10-18T13:33:40.201Z,25.53
2017-10-18T13:36:08.927Z,24.70
2017-10-18T13:38:36.578Z,21.53
2017-10-18T13:41:04.159Z,21.57
2017-10-18T13:43:31.805Z,22.43
2017-10-18T13:45:59.373Z,30.90
2017-10-18T13:48:26.985Z,23.53
2017-10-18T13:50:54.544Z,25.90
2017-10-18T13:53:22.165Z,21.03
2017-10-18T13:55:49.792Z,21.73
2017-10-18T13:58:18.188Z,19.70
2017-10-18T14:00:45.795Z,21.57
2017-10-18T14:03:13.595Z,24.17
2017-10-18T14:05:41.257Z,25.20
2017-10-18T14:08:08.855Z,31.30
2017-10-18T14:10:36.841Z,22.20
2017-10-18T14:13:04.465Z,22.93
2017-10-18T14:15:32.037Z,20.53
2017-10-18T14:17:59.792Z,26.10
2017-10-18T14:20:27.433Z,22.17
2017-10-18T14:22:55.082Z,17.43
2017-10-18T14:25:22.664Z,22.07
2017-10-18T14:27:50.261Z,17.53
2017-10-18T14:30:17.897Z,18.17
2017-10-18T14:32:45.518Z,17.00
2017-10-18T14:35:13.122Z,22.30
2017-10-18T14:37:40.787Z,21.17
2017-10-18T14:40:08.374Z,18.90
2017-10-18T14:42:36.002Z,19.80
2017-10-18T14:45:04.052Z,20.00
2017-10-18T14:47:31.721Z,20.03
2017-10-18T14:49:59.427Z,20.53
2017-10-18T14:52:28.034Z,24.07
2017-10-18T14:54:56.265Z,24.13
2017-10-18T14:57:23.968Z,21.53
2017-10-18T14:59:51.636Z,24.80
2017-10-18T15:02:19.209Z,20.13
2017-10-18T15:04:46.826Z,19.63
2017-10-18T15:07:14.404Z,22.00
2017-10-18T15:09:42.201Z,20.10
2017-10-18T15:12:09.830Z,23.70
2017-10-18T15:14:37.923Z,23.97
2017-10-18T15:17:05.542Z,21.33
2017-10-18T15:19:33.124Z,24.37
2017-10-18T15:22:00.746Z,20.07
2017-10-18T15:24:28.761Z,23.40
2017-10-18T15:26:56.410Z,18.80
2017-10-18T15:29:24.094Z,19.30
2017-10-18T15:31:52.341Z,25.97
2017-10-18T15:34:21.760Z,36.50
2017-10-18T15:36:52.152Z,22.13
2017-10-18T15:39:19.769Z,23.73
2017-10-18T15:41:47.358Z,24.40
2017-10-18T15:44:15.817Z,24.37
2017-10-18T15:46:44.190Z,22.70
2017-10-18T15:49:11.806Z,23.93
2017-10-18T15:51:39.463Z,21.70
2017-10-18T15:54:07.045Z,26.40
2017-10-18T15:56:35.093Z,24.93
2017-10-18T15:59:02.675Z,24.73
2017-10-18T16:01:31.128Z,26.27
2017-10-18T16:03:59.485Z,25.23
2017-10-18T16:06:27.908Z,26.50
2017-10-18T16:08:56.301Z,20.60
2017-10-18T16:11:24.714Z,25.13
2017-10-18T16:13:52.339Z,31.03
2017-10-18T16:16:19.985Z,22.97
2017-10-18T16:18:47.644Z,22.63
2017-10-18T16:21:15.262Z,18.73
2017-10-18T16:23:43.629Z,18.27
2017-10-18T16:26:11.286Z,18.17
2017-10-18T16:28:38.876Z,18.10
2017-10-18T16:31:07.742Z,19.50
2017-10-18T16:33:35.836Z,14.10
2017-10-18T16:36:03.650Z,15.27
2017-10-18T16:38:31.263Z,17.97
2017-10-18T16:40:58.881Z,17.07
2017-10-18T16:43:26.547Z,16.53
2017-10-18T16:45:54.886Z,16.87
2017-10-18T16:48:22.520Z,20.63
2017-10-18T16:50:51.122Z,19.23
2017-10-18T16:53:18.798Z,21.33
2017-10-18T16:55:46.438Z,18.23
2017-10-18T16:58:15.332Z,15.37
2017-10-18T17:00:43.357Z,18.70
2017-10-18T17:03:11.489Z,17.57
2017-10-18T17:05:40.306Z,20.07
2017-10-18T17:08:09.233Z,20.03
2017-10-18T17:10:37.232Z,24.07
2017-10-18T17:13:04.830Z,27.07
2017-10-18T17:15:32.803Z,25.27
2017-10-18T17:18:00.497Z,27.70
2017-10-18T17:20:28.083Z,25.23
2017-10-18T17:22:55.725Z,25.83
2017-10-18T17:25:23.309Z,32.70
2017-10-18T17:27:50.926Z,44.43
2017-10-18T17:32:52.935Z,38.47
2017-10-18T17:35:20.559Z,39.80
2017-10-18T17:37:48.137Z,31.43
2017-10-18T17:40:15.779Z,32.80
2017-10-18T17:42:43.358Z,30.80
2017-10-18T17:45:11.324Z,28.57
2017-10-18T17:47:38.947Z,22.30
2017-10-18T17:50:07.652Z,28.00
2017-10-18T17:52:35.282Z,22.63
2017-10-18T17:55:04.018Z,24.00
2017-10-18T17:57:32.614Z,21.30
2017-10-18T18:00:00.654Z,20.60
2017-10-18T18:02:28.226Z,28.30
2017-10-18T18:04:56.607Z,29.33
2017-10-18T18:07:25.005Z,27.50
2017-10-18T18:09:53.768Z,26.00
2017-10-18T18:12:21.374Z,22.60
2017-10-18T18:14:50.165Z,30.00
2017-10-18T18:17:17.758Z,28.90
2017-10-18T18:19:45.513Z,31.57
2017-10-18T18:22:13.137Z,32.23
2017-10-18T18:24:42.045Z,33.50
2017-10-18T18:27:10.794Z,28.83
2017-10-18T18:29:39.152Z,25.90
2017-10-18T18:32:07.409Z,35.30
2017-10-18T18:34:35.433Z,33.63
2017-10-18T18:37:04.375Z,34.67
2017-10-18T18:39:32.023Z,30.13
2017-10-18T18:42:00.409Z,29.03
2017-10-18T18:44:28.104Z,34.30
2017-10-18T18:46:56.099Z,39.40
2017-10-18T18:49:24.441Z,36.20
2017-10-18T18:51:52.038Z,43.93
2017-10-18T18:54:19.662Z,45.17
2017-10-18T18:56:47.257Z,51.53
2017-10-18T18:59:14.885Z,48.90
2017-10-18T19:01:42.588Z,42.70
2017-10-18T19:04:10.380Z,42.63
2017-10-18T19:06:39.094Z,42.20
2017-10-18T19:09:07.124Z,46.90
2017-10-18T19:11:36.189Z,48.27
2017-10-18T19:14:05.157Z,53.17
2017-10-18T19:16:32.882Z,62.07
2017-10-18T19:19:00.939Z,63.13
2017-10-18T19:21:28.560Z,41.07
2017-10-18T19:23:56.802Z,45.17
2017-10-18T19:26:25.560Z,46.00
2017-10-18T19:28:53.140Z,44.70
2017-10-18T19:31:20.748Z,43.53
2017-10-18T19:33:48.718Z,43.90
2017-10-18T19:36:16.325Z,48.83
2017-10-18T19:38:43.977Z,42.33
2017-10-18T19:41:11.593Z,46.47
2017-10-18T19:43:40.284Z,46.10
2017-10-18T19:46:07.971Z,39.87
2017-10-18T19:48:35.858Z,55.57
2017-10-18T19:51:04.499Z,51.97
2017-10-18T19:53:32.098Z,51.50
2017-10-18T19:55:59.709Z,41.83
2017-10-18T19:58:27.299Z,43.50
2017-10-18T20:00:55.750Z,37.77
2017-10-18T20:03:24.669Z,37.30
2017-10-18T20:05:52.352Z,36.70
2017-10-18T20:08:19.931Z,44.67
2017-10-18T20:10:47.566Z,55.50
2017-10-18T20:13:15.583Z,56.77
2017-10-18T20:15:44.143Z,49.40
2017-10-18T20:18:11.923Z,52.83
2017-10-18T20:20:39.528Z,50.33
2017-10-18T20:23:07.113Z,58.27
2017-10-18T20:25:34.686Z,50.47
2017-10-18T20:28:02.343Z,55.53
2017-10-18T20:30:29.932Z,50.50
2017-10-18T20:32:57.548Z,48.97
2017-10-18T20:35:25.512Z,55.80
2017-10-18T20:37:53.181Z,51.77
2017-10-18T20:40:21.217Z,46.30
2017-10-18T20:42:48.792Z,48.40
2017-10-18T20:45:16.992Z,51.23
2017-10-18T20:47:45.564Z,58.27
2017-10-18T20:50:13.210Z,50.90
2017-10-18T20:52:40.817Z,44.63
2017-10-18T20:55:09.802Z,42.53
2017-10-18T20:57:37.501Z,46.93
2017-10-18T21:00:05.083Z,49.33
2017-10-18T21:02:32.666Z,51.30
2017-10-18T21:05:01.484Z,53.40
2017-10-18T21:07:29.065Z,52.20
2017-10-18T21:09:57.260Z,46.27
2017-10-18T21:12:25.615Z,45.17
2017-10-18T21:15:10.586Z,48.07
2017-10-18T21:17:39.737Z,48.00
2017-10-18T21:20:07.564Z,48.23
2017-10-18T21:22:35.441Z,49.70
2017-10-18T21:25:03.811Z,50.90
2017-10-18T21:27:31.596Z,61.23
2017-10-18T21:30:00.717Z,52.63
2017-10-18T21:32:29.469Z,57.77
2017-10-18T21:34:57.062Z,46.57
2017-10-18T21:37:26.009Z,44.57
2017-10-18T21:39:54.766Z,38.13
2017-10-18T21:42:22.365Z,34.80
2017-10-18T21:44:51.353Z,34.13
2017-10-18T21:47:19.728Z,35.50
2017-10-18T21:49:47.291Z,37.27
2017-10-18T21:52:14.933Z,39.27
2017-10-18T21:54:42.908Z,36.13
2017-10-18T21:57:12.111Z,34.20
2017-10-18T21:59:41.066Z,44.30
2017-10-18T22:02:08.644Z,39.27
2017-10-18T22:04:37.618Z,44.47
2017-10-18T22:07:05.277Z,42.87
2017-10-18T22:09:33.455Z,43.10
2017-10-18T22:12:02.393Z,38.50
2017-10-18T22:14:30.413Z,37.10
2017-10-18T22:16:59.506Z,37.37
2017-10-18T22:19:28.424Z,37.03
2017-10-18T22:21:57.331Z,38.97
2017-10-18T22:24:25.682Z,35.00
2017-10-18T22:26:53.650Z,46.70
2017-10-18T22:29:22.776Z,40.17
2017-10-18T22:31:51.693Z,39.97
2017-10-18T22:34:20.736Z,35.93
2017-10-18T22:36:49.647Z,34.53
2017-10-18T22:39:17.231Z,37.63
2017-10-18T22:41:46.183Z,35.47
2017-10-18T22:44:14.173Z,43.43
2017-10-18T22:46:41.804Z,38.20
2017-10-18T22:49:10.720Z,43.07
2017-10-18T22:51:40.516Z,41.87
2017-10-18T22:54:08.926Z,42.43
2017-10-18T22:56:36.533Z,38.60
2017-10-18T22:59:04.991Z,40.20
2017-10-18T23:01:33.245Z,43.83
2017-10-18T23:04:01.203Z,39.30
2017-10-18T23:06:29.582Z,45.17
2017-10-18T23:08:57.149Z,55.90
2017-10-18T23:11:25.173Z,47.60
2017-10-18T23:13:52.765Z,54.90
2017-10-18T23:16:20.327Z,40.23
2017-10-18T23:18:47.953Z,47.13
2017-10-18T23:21:17.070Z,51.00
2017-10-18T23:23:44.728Z,59.50
2017-10-18T23:26:12.292Z,56.80
2017-10-18T23:28:41.229Z,54.93
2017-10-18T23:48:25.678Z,63.40
